Time;durP1;ratioP1;P1;durP2;ratioP2;P2;SDS_P1;SDS_P2;PMS_P1;PMS_P2;Temp;Humidity;BMP_temperature;BMP_pressure;BME280_temperature;BME280_humidity;BME280_pressure;Samples;Min_cycle;Max_cycle;Signal;HPM_P1;HPM_P2
2022/10/19 00:00:09;;;;;;;13.20;7.90;;;;;;;11.76;100.00;96842.44;1029932;28;20035;-68
2022/10/19 00:00:39;;;;;;;11.75;7.38;;;;;;;11.73;100.00;96837.66;1020248;29;20046;-73
2022/10/19 00:01:14;;;;;;;18.65;8.40;;;;;;;11.72;100.00;96846.59;1030324;28;20053;-73
2022/10/19 00:01:44;;;;;;;12.15;8.60;;;;;;;11.68;100.00;96841.03;1028837;28;20056;-72
2022/10/19 00:02:16;;;;;;;14.88;7.47;;;;;;;11.67;100.00;96841.25;1024154;28;20202;-73
2022/10/19 00:02:46;;;;;;;13.98;7.75;;;;;;;11.65;100.00;96835.47;1026259;28;20598;-71
2022/10/19 00:03:17;;;;;;;11.35;7.25;;;;;;;11.61;100.00;96839.63;1029473;28;20119;-73
2022/10/19 00:03:49;;;;;;;14.07;7.22;;;;;;;11.60;100.00;96840.63;1028387;28;20149;-73
2022/10/19 00:04:20;;;;;;;9.85;6.90;;;;;;;11.56;100.00;96835.06;1034430;28;20661;-72
2022/10/19 00:04:50;;;;;;;13.32;7.05;;;;;;;11.55;100.00;96836.91;1032979;28;20057;-71
2022/10/19 00:05:21;;;;;;;13.55;7.57;;;;;;;11.55;100.00;96838.75;1028992;28;20054;-72
2022/10/19 00:05:51;;;;;;;11.93;7.80;;;;;;;11.53;100.00;96836.34;1030500;28;20465;-72
2022/10/19 00:06:26;;;;;;;13.32;7.70;;;;;;;11.52;100.00;96841.84;1032711;28;20074;-70
2022/10/19 00:06:57;;;;;;;13.20;7.72;;;;;;;11.46;100.00;96827.81;1024662;28;20058;-73
2022/10/19 00:07:27;;;;;;;13.80;7.53;;;;;;;11.46;100.00;96838.34;1034936;28;20029;-72
2022/10/19 00:08:00;;;;;;;11.15;7.40;;;;;;;11.48;100.00;96840.75;1027265;28;20551;-72
2022/10/19 00:08:31;;;;;;;22.85;7.55;;;;;;;11.47;100.00;96845.22;1022022;29;20035;-71
2022/10/19 00:09:09;;;;;;;15.63;7.43;;;;;;;11.47;100.00;96841.78;1019085;29;20024;-73
2022/10/19 00:09:42;;;;;;;29.52;9.13;;;;;;;11.46;100.00;96843.59;1024638;28;20129;-72
2022/10/19 00:10:12;;;;;;;30.48;9.60;;;;;;;11.45;100.00;96842.00;1034768;28;20398;-72
2022/10/19 00:10:43;;;;;;;20.73;8.50;;;;;;;11.41;100.00;96835.66;1028738;28;20108;-73
2022/10/19 00:11:14;;;;;;;26.35;8.23;;;;;;;11.42;100.00;96842.50;1027872;28;20034;-71
2022/10/19 00:11:48;;;;;;;20.58;8.13;;;;;;;11.42;100.00;96839.88;1032564;28;20026;-72
2022/10/19 00:12:19;;;;;;;15.88;7.35;;;;;;;11.39;100.00;96835.09;1026422;28;20133;-73
2022/10/19 00:12:49;;;;;;;16.75;8.13;;;;;;;11.38;100.00;96840.59;1026570;28;20070;-72
2022/10/19 00:13:19;;;;;;;18.70;8.48;;;;;;;11.38;100.00;96840.59;1027751;28;20084;-71
2022/10/19 00:13:51;;;;;;;20.15;8.18;;;;;;;11.36;100.00;96846.06;1029386;28;20066;-73
2022/10/19 00:14:22;;;;;;;20.15;8.30;;;;;;;11.35;100.00;96836.59;1027109;28;20096;-72
2022/10/19 00:14:52;;;;;;;17.10;8.15;;;;;;;11.33;100.00;96836.88;1027691;28;20030;-72
2022/10/19 00:15:23;;;;;;;25.23;9.48;;;;;;;11.28;100.00;96831.53;1025935;28;20026;-72
2022/10/19 00:15:53;;;;;;;19.55;7.78;;;;;;;11.33;100.00;96836.03;1026745;28;20026;-72
2022/10/19 00:16:25;;;;;;;22.73;11.20;;;;;;;11.33;100.00;96841.28;1025526;28;20027;-71
2022/10/19 00:16:57;;;;;;;16.23;8.30;;;;;;;11.33;100.00;96841.28;1025829;28;20466;-73
2022/10/19 00:17:27;;;;;;;17.92;8.52;;;;;;;11.33;100.00;96839.50;1022562;29;20023;-73
2022/10/19 00:17:57;;;;;;;12.85;8.43;;;;;;;11.33;100.00;96839.50;1022381;29;20118;-71
2022/10/19 00:18:28;;;;;;;15.38;8.63;;;;;;;11.32;100.00;96837.88;1032812;28;20268;-72
2022/10/19 00:19:00;;;;;;;12.98;7.65;;;;;;;11.27;100.00;96835.19;1029817;28;20045;-72
2022/10/19 00:19:30;;;;;;;14.32;8.52;;;;;;;11.31;100.00;96831.03;1030961;28;20503;-73
2022/10/19 00:20:01;;;;;;;18.60;8.05;;;;;;;11.30;100.00;96837.34;1029446;28;20140;-72
2022/10/19 00:20:32;;;;;;;13.48;7.97;;;;;;;11.30;100.00;96839.97;1024079;28;20097;-72
2022/10/19 00:21:06;;;;;;;12.82;8.40;;;;;;;11.29;100.00;96827.06;1034160;28;20581;-73
2022/10/19 00:21:38;;;;;;;15.90;7.97;;;;;;;11.30;100.00;96828.63;1031050;28;20030;-72
2022/10/19 00:22:08;;;;;;;15.02;8.10;;;;;;;11.30;100.00;96833.88;1024568;28;20019;-70
2022/10/19 00:22:39;;;;;;;14.95;7.97;;;;;;;11.28;100.00;96834.13;1020946;28;20039;-71
2022/10/19 00:23:09;;;;;;;14.77;8.32;;;;;;;11.25;100.00;96825.94;1030586;28;20035;-73
2022/10/19 00:23:40;;;;;;;15.10;8.52;;;;;;;11.27;100.00;96837.03;1022829;28;20449;-72
2022/10/19 00:24:10;;;;;;;11.35;8.23;;;;;;;11.22;100.00;96826.41;1032463;28;20034;-72
2022/10/19 00:24:41;;;;;;;13.02;8.10;;;;;;;11.27;100.00;96831.78;1029579;28;20092;-73
2022/10/19 00:25:11;;;;;;;12.88;8.40;;;;;;;11.25;100.00;96832.00;1034821;28;20109;-73
2022/10/19 00:25:42;;;;;;;13.68;7.85;;;;;;;11.26;100.00;96833.56;1025635;28;20220;-73
2022/10/19 00:26:12;;;;;;;11.85;7.82;;;;;;;11.25;100.00;96833.81;1017320;29;20020;-73
2022/10/19 00:26:43;;;;;;;16.05;8.07;;;;;;;11.24;100.00;96834.88;1035321;28;20021;-72
2022/10/19 00:27:13;;;;;;;13.93;8.05;;;;;;;11.22;100.00;96831.69;1031079;28;20507;-73
2022/10/19 00:27:44;;;;;;;33.10;9.35;;;;;;;11.21;100.00;96835.34;1024285;28;20018;-70
2022/10/19 00:28:14;;;;;;;27.45;9.80;;;;;;;11.16;100.00;96822.13;1025909;28;20023;-72
2022/10/19 00:28:45;;;;;;;13.38;8.00;;;;;;;11.19;100.00;96832.16;1030642;28;20037;-72
2022/10/19 00:29:15;;;;;;;13.82;8.23;;;;;;;11.19;100.00;96832.16;1022968;29;20065;-73
2022/10/19 00:29:46;;;;;;;13.90;7.82;;;;;;;11.17;100.00;96834.25;1020477;29;20067;-70
2022/10/19 00:30:16;;;;;;;12.10;8.00;;;;;;;11.15;100.00;96836.28;1037807;28;20033;-72
2022/10/19 00:30:47;;;;;;;12.15;7.45;;;;;;;11.13;100.00;96838.34;1028269;28;20571;-72
2022/10/19 00:31:17;;;;;;;13.43;7.85;;;;;;;11.13;100.00;96835.72;1027045;28;20415;-73
2022/10/19 00:31:49;;;;;;;13.70;7.70;;;;;;;11.11;100.00;96835.97;1024335;28;20023;-72
2022/10/19 00:32:19;;;;;;;14.32;7.43;;;;;;;11.08;100.00;96834.63;1022230;28;20448;-71
2022/10/19 00:32:50;;;;;;;16.13;7.65;;;;;;;11.09;100.00;96833.56;1028436;28;20389;-72
2022/10/19 00:33:21;;;;;;;17.65;8.18;;;;;;;11.08;100.00;96839.09;1026892;28;20030;-71
2022/10/19 00:33:52;;;;;;;12.18;7.68;;;;;;;11.07;100.00;96834.88;1027708;28;20049;-70
2022/10/19 00:34:22;;;;;;;13.77;8.15;;;;;;;11.03;100.00;96831.09;1029720;28;20118;-72
2022/10/19 00:34:53;;;;;;;22.95;8.73;;;;;;;11.04;100.00;96830.88;1034689;28;20022;-71
2022/10/19 00:35:23;;;;;;;14.10;8.20;;;;;;;11.03;100.00;96833.72;1034856;28;20042;-73
2022/10/19 00:35:54;;;;;;;12.73;7.63;;;;;;;11.01;100.00;96831.34;1027651;28;20031;-72
2022/10/19 00:36:29;;;;;;;14.32;8.55;;;;;;;11.02;100.00;96834.78;1029907;28;20632;-72
2022/10/19 00:36:59;;;;;;;12.45;8.13;;;;;;;11.01;100.00;96835.81;1030746;28;20053;-73
2022/10/19 00:37:30;;;;;;;13.52;8.02;;;;;;;10.97;100.00;96835.50;1032607;28;20792;-70
2022/10/19 00:38:00;;;;;;;11.73;7.20;;;;;;;10.96;100.00;96838.34;1032032;28;20050;-71
2022/10/19 00:38:31;;;;;;;15.98;8.38;;;;;;;10.96;100.00;96833.88;1033901;28;20029;-72
2022/10/19 00:39:02;;;;;;;17.10;8.27;;;;;;;10.95;100.00;96827.03;1031031;28;20049;-71
2022/10/19 00:39:33;;;;;;;19.10;9.25;;;;;;;10.93;100.00;96828.31;1021867;29;20111;-69
2022/10/19 00:40:03;;;;;;;17.98;9.25;;;;;;;10.93;100.00;96834.38;1016160;29;20370;-69
2022/10/19 00:40:37;;;;;;;17.30;8.20;;;;;;;10.90;100.00;96834.84;1022260;29;20066;-72
2022/10/19 00:41:08;;;;;;;11.57;7.75;;;;;;;10.89;100.00;96833.25;1022707;28;20034;-72
2022/10/19 00:41:39;;;;;;;20.25;8.25;;;;;;;10.89;100.00;96828.00;1028732;28;20308;-72
2022/10/19 00:42:11;;;;;;;13.05;7.55;;;;;;;10.87;100.00;96832.69;1028914;28;20654;-71
2022/10/19 00:42:41;;;;;;;24.98;8.55;;;;;;;10.86;100.00;96833.72;1026219;28;20069;-72
2022/10/19 00:43:20;;;;;;;23.55;8.73;;;;;;;10.85;100.00;96832.13;1026781;28;20761;-72
2022/10/19 00:44:01;;;;;;;25.40;8.60;;;;;;;10.83;100.00;96821.06;1023814;28;20023;-72
2022/10/19 00:44:31;;;;;;;14.07;8.10;;;;;;;10.83;100.00;96831.56;1022517;28;20293;-72
2022/10/19 00:45:05;;;;;;;18.10;7.75;;;;;;;10.83;100.00;96834.19;1030754;28;20552;-72
2022/10/19 00:45:36;;;;;;;14.40;7.30;;;;;;;10.80;100.00;96829.44;1021581;28;20503;-72
2022/10/19 00:46:12;;;;;;;17.52;8.10;;;;;;;10.78;100.00;96831.50;1025089;28;20350;-73
2022/10/19 00:46:44;;;;;;;13.55;7.90;;;;;;;10.79;100.00;96830.44;1026404;28;20023;-72
2022/10/19 00:47:14;;;;;;;21.20;7.88;;;;;;;10.76;100.00;96830.91;1026801;28;20316;-72
2022/10/19 00:47:45;;;;;;;15.20;7.90;;;;;;;10.76;100.00;96831.72;1030591;28;20276;-74
2022/10/19 00:48:27;;;;;;;16.67;8.55;;;;;;;10.76;100.00;96834.34;1025081;28;20379;-71
2022/10/19 00:49:02;;;;;;;19.55;8.35;;;;;;;10.77;100.00;96829.91;1018891;29;20012;-73
2022/10/19 00:49:35;;;;;;;27.75;9.18;;;;;;;10.77;100.00;96835.16;1026222;28;20261;-72
2022/10/19 00:50:06;;;;;;;27.10;9.25;;;;;;;10.76;100.00;96830.91;1016285;29;20068;-70
2022/10/19 00:50:36;;;;;;;20.45;8.60;;;;;;;10.74;100.00;96831.16;1025851;28;20300;-72
2022/10/19 00:51:07;;;;;;;19.25;9.45;;;;;;;10.68;100.00;96818.97;1019321;29;20026;-72
2022/10/19 00:51:42;;;;;;;16.98;8.50;;;;;;;10.73;100.00;96829.59;1029619;28;20050;-72
2022/10/19 00:52:14;;;;;;;14.77;8.38;;;;;;;10.73;100.00;96821.69;1019722;28;20038;-71
2022/10/19 00:52:44;;;;;;;15.60;8.15;;;;;;;10.72;100.00;96825.34;1028604;28;20296;-72
2022/10/19 00:53:15;;;;;;;14.88;9.27;;;;;;;10.74;100.00;96825.13;1022889;29;20305;-72
2022/10/19 00:53:45;;;;;;;15.98;9.18;;;;;;;10.69;100.00;96817.16;1025316;28;20069;-71
2022/10/19 00:54:16;;;;;;;15.35;8.55;;;;;;;10.72;100.00;96821.94;1024280;28;20018;-71
2022/10/19 00:54:46;;;;;;;14.45;9.15;;;;;;;10.73;100.00;96826.13;1030179;28;20087;-71
2022/10/19 00:55:17;;;;;;;19.42;9.75;;;;;;;10.70;100.00;96818.75;1027037;28;20021;-72
2022/10/19 00:55:47;;;;;;;15.15;8.95;;;;;;;10.70;100.00;96821.38;1032169;28;20037;-73
2022/10/19 00:56:18;;;;;;;13.82;8.23;;;;;;;10.68;100.00;96818.19;1024591;28;20414;-71
2022/10/19 00:56:49;;;;;;;14.80;8.77;;;;;;;10.68;100.00;96821.59;1022854;29;20016;-72
2022/10/19 00:57:19;;;;;;;14.90;8.05;;;;;;;10.67;100.00;96824.47;1028304;28;20901;-72
2022/10/19 00:57:50;;;;;;;13.15;8.93;;;;;;;10.65;100.00;96821.28;1018143;28;20457;-74
2022/10/19 00:58:20;;;;;;;18.33;8.93;;;;;;;10.65;100.00;96818.66;1018933;29;20031;-73
2022/10/19 00:58:51;;;;;;;12.73;8.40;;;;;;;10.64;100.00;96817.88;1023890;28;20813;-73
2022/10/19 00:59:22;;;;;;;13.30;7.80;;;;;;;10.62;100.00;96817.28;1024400;28;20050;-72
2022/10/19 00:59:52;;;;;;;15.88;9.07;;;;;;;10.57;100.00;96810.13;1030673;28;20023;-70
2022/10/19 01:00:23;;;;;;;16.13;8.18;;;;;;;10.61;100.00;96821.75;1023135;28;20033;-71
2022/10/19 01:00:53;;;;;;;15.90;8.98;;;;;;;10.60;100.00;96820.16;1021651;28;20062;-72
2022/10/19 01:01:24;;;;;;;14.10;7.85;;;;;;;10.60;100.00;96814.91;1026576;28;20106;-70
2022/10/19 01:01:54;;;;;;;11.55;7.93;;;;;;;10.60;100.00;96817.53;1022998;28;20021;-71
2022/10/19 01:02:25;;;;;;;15.63;9.00;;;;;;;10.58;100.00;96814.34;1020354;28;20480;-70
2022/10/19 01:02:56;;;;;;;20.25;9.52;;;;;;;10.56;100.00;96810.34;1025736;28;20018;-71
2022/10/19 01:03:26;;;;;;;15.45;8.90;;;;;;;10.59;100.00;96818.56;1029877;28;20118;-71
2022/10/19 01:03:57;;;;;;;13.98;8.82;;;;;;;10.59;100.00;96810.69;1023952;28;20126;-72
2022/10/19 01:04:27;;;;;;;14.70;8.88;;;;;;;10.58;100.00;96814.34;1022857;29;20019;-73
2022/10/19 01:04:58;;;;;;;22.35;8.90;;;;;;;10.59;100.00;96818.56;1021560;28;20022;-69
2022/10/19 01:05:28;;;;;;;16.08;9.32;;;;;;;10.59;100.00;96818.56;1024278;28;20041;-72
2022/10/19 01:05:59;;;;;;;18.77;9.02;;;;;;;10.61;100.00;96815.72;1030131;28;20034;-72
2022/10/19 01:06:30;;;;;;;14.63;8.82;;;;;;;10.59;100.00;96818.56;1032919;28;20018;-70
2022/10/19 01:07:01;;;;;;;17.83;10.05;;;;;;;10.68;100.00;96810.31;1024626;28;20030;-70
2022/10/19 01:07:31;;;;;;;16.30;9.50;;;;;;;10.66;100.00;96812.38;1028814;28;20024;-71
2022/10/19 01:08:02;;;;;;;19.13;10.10;;;;;;;10.65;100.00;96816.03;1025940;28;20711;-71
2022/10/19 01:08:32;;;;;;;25.00;10.02;;;;;;;10.63;100.00;96808.41;1018575;29;20024;-72
2022/10/19 01:09:03;;;;;;;20.23;10.05;;;;;;;10.62;100.00;96818.09;1023669;28;20487;-70
2022/10/19 01:09:33;;;;;;;17.70;10.57;;;;;;;10.65;100.00;96808.16;1033868;28;20523;-71
2022/10/19 01:10:04;;;;;;;18.25;10.70;;;;;;;10.62;100.00;96807.59;1026603;28;20081;-73
2022/10/19 01:11:22;;;;;;;16.73;9.68;;;;;;;10.65;100.00;96816.03;1025393;28;20030;-71
2022/10/19 01:11:59;;;;;;;16.23;8.88;;;;;;;10.64;100.00;96810.00;1007464;29;20072;-70
2022/10/19 01:12:34;;;;;;;16.70;8.52;;;;;;;10.60;100.00;96807.03;1004824;29;20301;-71
2022/10/19 01:13:32;;;;;;;16.08;8.85;;;;;;;10.58;100.00;96814.34;1006058;29;20277;-72
2022/10/19 01:14:25;;;;;;;15.43;8.88;;;;;;;10.41;100.00;96778.59;1012143;29;20480;-72
2022/10/19 01:15:19;;;;;;;19.45;9.60;;;;;;;10.56;100.00;96811.19;1000507;29;20856;-70
2022/10/19 01:16:02;;;;;;;16.85;8.88;;;;;;;10.57;100.00;96804.09;1012815;29;20737;-72
2022/10/19 01:16:41;;;;;;;14.30;8.68;;;;;;;10.55;100.00;96809.56;1015932;29;20836;-68
2022/10/19 01:17:14;;;;;;;17.55;9.40;;;;;;;10.54;100.00;96807.97;1013661;29;20352;-71
2022/10/19 01:17:59;;;;;;;19.15;9.70;;;;;;;10.53;100.00;96806.41;1021544;28;20263;-71
2022/10/19 01:19:12;;;;;;;19.35;9.98;;;;;;;10.52;100.00;96812.66;1026836;28;20250;-70
2022/10/19 01:20:14;;;;;;;17.25;9.45;;;;;;;10.51;100.00;96810.28;1037233;28;20292;-72
2022/10/19 01:20:51;;;;;;;16.52;9.05;;;;;;;10.47;100.00;96814.41;1027624;28;20257;-71
2022/10/19 01:21:26;;;;;;;26.67;10.10;;;;;;;10.44;100.00;96815.66;1027704;28;20832;-72
2022/10/19 01:22:28;;;;;;;18.00;10.05;;;;;;;10.42;100.00;96815.09;1030845;28;20261;-70
2022/10/19 01:23:22;;;;;;;28.88;10.60;;;;;;;10.40;100.00;96811.94;1027192;28;20361;-71
2022/10/19 01:24:26;;;;;;;27.55;10.32;;;;;;;10.40;100.00;96811.94;1030016;28;20265;-73
2022/10/19 01:25:12;;;;;;;24.75;9.70;;;;;;;10.41;100.00;96810.88;1034440;28;20670;-72
2022/10/19 01:25:58;;;;;;;21.73;9.68;;;;;;;10.40;100.00;96817.19;1034776;28;20276;-71
2022/10/19 01:26:43;;;;;;;17.63;10.13;;;;;;;10.41;100.00;96816.13;1034893;28;20339;-71
2022/10/19 01:27:29;;;;;;;21.92;10.43;;;;;;;10.39;100.00;96812.94;1026828;28;20297;-70
2022/10/19 01:28:29;;;;;;;24.38;10.15;;;;;;;10.37;100.00;96809.78;1027981;28;20278;-74
2022/10/19 01:29:02;;;;;;;19.95;10.43;;;;;;;10.37;100.00;96812.38;1038634;28;20272;-72
2022/10/19 01:29:51;;;;;;;19.15;10.77;;;;;;;10.36;100.00;96808.16;1034884;28;20263;-70
2022/10/19 01:30:34;;;;;;;25.20;11.32;;;;;;;10.37;100.00;96809.78;1034685;28;20261;-71
2022/10/19 01:31:23;;;;;;;32.53;12.30;;;;;;;10.36;100.00;96810.78;1022631;28;20361;-71
2022/10/19 01:32:34;;;;;;;21.80;10.07;;;;;;;10.29;100.00;96807.50;1022848;29;20274;-70
2022/10/19 01:33:19;;;;;;;20.45;9.85;;;;;;;10.35;100.00;96811.81;1026374;28;20262;-71
2022/10/19 01:34:14;;;;;;;27.92;11.02;;;;;;;10.33;100.00;96813.91;1034282;28;20044;-70
2022/10/19 01:35:21;;;;;;;27.27;10.80;;;;;;;10.39;100.00;96815.56;1023975;28;20353;-72
2022/10/19 01:36:05;;;;;;;20.30;10.57;;;;;;;10.34;100.00;96815.47;1029013;28;20347;-73
2022/10/19 01:37:01;;;;;;;23.38;10.82;;;;;;;10.33;100.00;96808.66;1022910;28;20325;-71
2022/10/19 01:37:45;;;;;;;17.35;10.13;;;;;;;10.36;100.00;96814.22;1019367;29;20716;-70
2022/10/19 01:38:27;;;;;;;21.45;10.90;;;;;;;10.33;100.00;96811.28;1028469;28;20270;-72
2022/10/19 01:39:00;;;;;;;17.98;10.63;;;;;;;10.40;100.00;96811.94;1034329;28;20272;-73
2022/10/19 01:39:41;;;;;;;22.05;11.75;;;;;;;10.40;100.00;96809.31;1030727;28;20315;-71
2022/10/19 01:40:18;;;;;;;17.88;11.05;;;;;;;10.40;100.00;96811.94;1034869;28;20267;-72
2022/10/19 01:41:06;;;;;;;32.20;11.63;;;;;;;10.31;100.00;96806.25;1022612;28;20270;-71
2022/10/19 01:41:45;;;;;;;20.35;11.20;;;;;;;10.40;100.00;96813.75;1026849;28;20302;-72
2022/10/19 01:42:22;;;;;;;21.83;11.20;;;;;;;10.41;100.00;96812.72;1030289;28;20284;-71
2022/10/19 01:42:58;;;;;;;20.40;11.07;;;;;;;10.45;100.00;96817.25;1034653;28;20261;-72
2022/10/19 01:43:53;;;;;;;23.10;11.68;;;;;;;10.42;100.00;96807.22;1034710;28;20937;-71
2022/10/19 01:44:28;;;;;;;20.77;11.40;;;;;;;10.45;100.00;96811.22;1030557;28;20262;-72
2022/10/19 01:45:04;;;;;;;20.58;11.40;;;;;;;10.44;100.00;96809.63;1026485;28;20278;-72
2022/10/19 01:45:45;;;;;;;23.60;11.60;;;;;;;10.44;100.00;96802.56;1034643;28;20375;-71
2022/10/19 01:46:38;;;;;;;21.20;9.95;;;;;;;10.42;100.00;96801.97;1026477;28;20289;-71
2022/10/19 01:47:43;;;;;;;19.63;9.65;;;;;;;10.41;100.00;96810.88;1026725;28;20258;-72
2022/10/19 01:48:22;;;;;;;26.60;11.15;;;;;;;10.42;100.00;96812.47;1016450;29;20891;-70
2022/10/19 01:49:27;;;;;;;23.65;10.15;;;;;;;10.39;100.00;96810.31;1030768;28;20261;-73
2022/10/19 01:50:19;;;;;;;22.02;11.73;;;;;;;10.39;100.00;96812.94;1021131;28;20386;-72
2022/10/19 01:51:07;;;;;;;24.25;10.48;;;;;;;10.37;100.00;96801.91;1036939;28;20373;-70
2022/10/19 01:51:40;;;;;;;21.55;11.20;;;;;;;10.39;100.00;96807.69;1026577;28;20374;-72
2022/10/19 01:52:12;;;;;;;25.67;10.35;;;;;;;10.40;100.00;96806.69;1022219;29;20287;-71
2022/10/19 01:52:43;;;;;;;20.92;11.27;;;;;;;10.41;100.00;96810.88;1026319;28;20320;-71
2022/10/19 01:53:13;;;;;;;25.83;12.18;;;;;;;10.45;100.00;96804.13;1030706;28;20331;-72
2022/10/19 01:53:46;;;;;;;24.83;12.32;;;;;;;10.42;100.00;96798.56;1026497;28;20035;-72
2022/10/19 01:54:17;;;;;;;26.13;12.00;;;;;;;10.44;100.00;96799.94;1034699;28;20021;-71
2022/10/19 01:54:50;;;;;;;28.05;11.32;;;;;;;10.42;100.00;96809.84;1022508;29;20298;-72
2022/10/19 01:55:20;;;;;;;27.08;11.23;;;;;;;10.38;100.00;96804.28;1034607;28;20551;-72
2022/10/19 01:55:51;;;;;;;24.67;11.38;;;;;;;10.41;100.00;96810.88;1026696;28;20349;-72
2022/10/19 01:56:23;;;;;;;27.85;11.15;;;;;;;10.39;100.00;96807.69;1026351;28;20070;-73
2022/10/19 01:56:54;;;;;;;25.40;11.18;;;;;;;10.38;100.00;96801.66;1030815;28;20018;-72
2022/10/19 01:57:31;;;;;;;28.13;12.30;;;;;;;10.37;100.00;96810.56;1026580;28;20294;-71
2022/10/19 01:58:03;;;;;;;26.92;12.80;;;;;;;10.36;100.00;96814.22;1026277;28;20103;-72
2022/10/19 01:58:35;;;;;;;23.05;12.82;;;;;;;10.37;100.00;96805.31;1034417;28;20265;-70
2022/10/19 01:59:05;;;;;;;23.52;11.57;;;;;;;10.39;100.00;96807.69;1026556;28;20250;-72
2022/10/19 01:59:36;;;;;;;21.17;11.43;;;;;;;10.38;100.00;96806.09;1018642;29;20263;-71
2022/10/19 02:00:07;;;;;;;20.38;10.38;;;;;;;10.36;100.00;96808.16;1030332;28;20541;-70
2022/10/19 02:00:38;;;;;;;25.88;11.75;;;;;;;10.35;100.00;96806.56;1026736;28;20027;-71
2022/10/19 02:01:09;;;;;;;25.02;10.88;;;;;;;10.32;100.00;96805.22;1020925;28;20020;-72
2022/10/19 02:01:42;;;;;;;25.70;12.07;;;;;;;10.31;100.00;96805.44;1018627;29;20267;-70
2022/10/19 02:02:13;;;;;;;20.35;9.85;;;;;;;10.33;100.00;96806.03;1024057;28;20457;-72
2022/10/19 02:02:48;;;;;;;19.70;10.18;;;;;;;10.32;100.00;96799.16;1030378;28;20357;-72
2022/10/19 02:03:18;;;;;;;20.33;10.25;;;;;;;10.32;100.00;96807.03;1029251;28;20017;-72
2022/10/19 02:03:49;;;;;;;29.60;11.20;;;;;;;10.34;100.00;96811.03;1034605;28;20781;-71
2022/10/19 02:04:20;;;;;;;24.63;10.35;;;;;;;10.34;100.00;96805.00;1022446;28;20020;-71
2022/10/19 02:04:51;;;;;;;21.73;11.18;;;;;;;10.37;100.00;96804.53;1029439;28;20631;-72
2022/10/19 02:05:23;;;;;;;23.95;11.93;;;;;;;10.41;100.00;96804.84;1022586;29;20255;-72
2022/10/19 02:05:53;;;;;;;20.05;11.60;;;;;;;10.41;100.00;96805.63;1022782;29;20016;-71
2022/10/19 02:06:24;;;;;;;26.27;11.68;;;;;;;10.42;100.00;96801.19;1022309;29;20291;-71
2022/10/19 02:06:54;;;;;;;20.23;10.02;;;;;;;10.32;100.00;96794.72;1030723;28;20113;-71
2022/10/19 02:07:25;;;;;;;26.85;11.23;;;;;;;10.42;100.00;96801.19;1030560;28;20022;-71
2022/10/19 02:07:59;;;;;;;28.42;10.65;;;;;;;10.43;100.00;96802.78;1026615;28;20022;-72
2022/10/19 02:08:35;;;;;;;21.48;11.57;;;;;;;10.44;100.00;96794.69;1034432;28;20073;-70
2022/10/19 02:09:06;;;;;;;25.70;11.82;;;;;;;10.45;100.00;96803.34;1026554;28;21014;-72
2022/10/19 02:09:36;;;;;;;24.08;12.50;;;;;;;10.46;100.00;96803.13;1038672;28;20299;-70
2022/10/19 02:10:07;;;;;;;21.83;11.75;;;;;;;10.47;100.00;96803.91;1030694;28;20145;-72
2022/10/19 02:10:38;;;;;;;26.73;11.15;;;;;;;10.46;100.00;96803.13;1018697;29;20059;-72
2022/10/19 02:11:08;;;;;;;27.88;12.30;;;;;;;10.48;100.00;96797.63;1026691;28;20015;-71
2022/10/19 02:11:39;;;;;;;22.85;11.10;;;;;;;10.49;100.00;96800.00;1029254;28;20749;-71
2022/10/19 02:12:09;;;;;;;23.85;11.75;;;;;;;10.51;100.00;96805.81;1034810;28;20033;-72
2022/10/19 02:12:40;;;;;;;21.00;12.25;;;;;;;10.53;100.00;96797.69;1029755;28;20022;-71
2022/10/19 02:13:11;;;;;;;25.13;12.40;;;;;;;10.50;100.00;96795.56;1034279;28;20041;-72
2022/10/19 02:13:42;;;;;;;27.33;12.07;;;;;;;10.56;100.00;96797.22;1030556;28;20030;-72
2022/10/19 02:14:13;;;;;;;26.42;12.40;;;;;;;10.58;100.00;96805.69;1018670;29;20275;-71
2022/10/19 02:14:45;;;;;;;21.77;11.23;;;;;;;10.59;100.00;96805.44;1026424;28;20027;-70
2022/10/19 02:15:17;;;;;;;22.50;12.20;;;;;;;10.59;100.00;96802.81;1022737;29;20421;-72
2022/10/19 02:15:49;;;;;;;24.05;11.07;;;;;;;10.62;100.00;96802.34;1022657;29;20298;-73
2022/10/19 02:16:29;;;;;;;18.73;10.93;;;;;;;10.61;100.00;96794.72;1022561;29;20290;-70
2022/10/19 02:17:13;;;;;;;29.17;11.07;;;;;;;10.66;100.00;96801.88;1026458;28;20262;-72
2022/10/19 02:17:48;;;;;;;21.83;12.30;;;;;;;10.64;100.00;96802.13;1026545;28;20336;-70
2022/10/19 02:18:41;;;;;;;21.02;10.93;;;;;;;10.65;100.00;96801.06;1020331;28;20295;-70
2022/10/19 02:19:12;;;;;;;25.08;11.15;;;;;;;10.67;100.00;96800.84;1024525;28;20333;-72
2022/10/19 02:19:42;;;;;;;21.83;11.57;;;;;;;10.67;100.00;96803.47;1030531;28;21200;-72
2022/10/19 02:20:13;;;;;;;25.90;12.05;;;;;;;10.68;100.00;96800.59;1036774;28;20513;-71
2022/10/19 02:20:44;;;;;;;19.90;10.77;;;;;;;10.70;100.00;96806.44;1030567;28;20105;-71
2022/10/19 02:21:14;;;;;;;22.70;11.80;;;;;;;10.71;100.00;96804.59;1030517;28;20510;-71
2022/10/19 02:21:45;;;;;;;31.70;12.48;;;;;;;10.73;100.00;96808.59;1034555;28;20018;-72
2022/10/19 02:22:15;;;;;;;25.40;11.55;;;;;;;10.74;100.00;96809.38;1026159;28;20033;-72
2022/10/19 02:22:46;;;;;;;22.88;11.68;;;;;;;10.76;100.00;96807.28;1034450;28;20124;-71
2022/10/19 02:23:18;;;;;;;22.45;11.85;;;;;;;10.78;100.00;96807.84;1031018;28;20117;-71
2022/10/19 02:23:48;;;;;;;27.23;12.13;;;;;;;10.80;100.00;96803.19;1026599;28;20015;-72
2022/10/19 02:24:19;;;;;;;25.15;11.65;;;;;;;10.77;100.00;96799.19;1030469;28;20273;-70
2022/10/19 02:24:49;;;;;;;23.42;12.30;;;;;;;10.84;100.00;96810.34;1030496;28;20562;-73
2022/10/19 02:25:20;;;;;;;23.00;11.98;;;;;;;10.85;100.00;96808.50;1033776;28;20599;-72
2022/10/19 02:25:51;;;;;;;22.33;11.85;;;;;;;10.82;100.00;96796.63;1029607;28;20471;-71
2022/10/19 02:26:21;;;;;;;24.88;12.20;;;;;;;10.87;100.00;96806.44;1015915;29;20035;-71
2022/10/19 02:26:51;;;;;;;26.02;11.48;;;;;;;10.88;100.00;96813.28;1013904;29;20544;-71
2022/10/19 02:27:22;;;;;;;21.75;10.95;;;;;;;10.84;100.00;96794.56;1021751;29;20055;-71
2022/10/19 02:27:53;;;;;;;21.70;12.27;;;;;;;10.90;100.00;96802.53;1021783;29;20095;-71
2022/10/19 02:28:23;;;;;;;23.95;11.55;;;;;;;10.95;100.00;96806.03;1022019;28;20531;-70
2022/10/19 02:28:54;;;;;;;23.10;12.18;;;;;;;10.95;100.00;96811.28;1022333;29;20105;-74
2022/10/19 02:29:25;;;;;;;21.65;11.40;;;;;;;10.97;100.00;96809.22;1029918;28;20085;-72
2022/10/19 02:29:55;;;;;;;25.58;12.85;;;;;;;10.97;100.00;96809.22;1030036;28;20018;-72
2022/10/19 02:30:26;;;;;;;25.30;12.10;;;;;;;11.01;100.00;96805.09;1033969;28;20061;-72
2022/10/19 02:30:56;;;;;;;21.38;11.52;;;;;;;11.07;100.00;96805.97;1033806;28;20422;-72
2022/10/19 02:31:27;;;;;;;22.45;10.68;;;;;;;11.08;100.00;96803.09;1017901;29;20060;-72
2022/10/19 02:31:58;;;;;;;26.85;12.00;;;;;;;11.10;100.00;96805.50;1022160;29;20051;-73
2022/10/19 02:32:28;;;;;;;23.05;11.10;;;;;;;11.13;100.00;96806.84;1023317;28;20030;-70
2022/10/19 02:32:59;;;;;;;21.63;11.40;;;;;;;11.14;100.00;96795.31;1018027;29;20020;-70
2022/10/19 02:33:29;;;;;;;21.45;11.27;;;;;;;11.18;100.00;96799.03;1034017;28;20113;-72
2022/10/19 02:34:00;;;;;;;19.73;10.57;;;;;;;11.16;100.00;96796.63;1022808;28;20596;-71
2022/10/19 02:34:30;;;;;;;21.48;11.55;;;;;;;11.20;100.00;96802.22;1030195;28;20030;-71
2022/10/19 02:35:01;;;;;;;20.40;10.45;;;;;;;11.21;100.00;96803.81;1022128;29;20107;-70
2022/10/19 02:35:31;;;;;;;17.67;9.95;;;;;;;11.22;100.00;96802.78;1014195;29;20016;-72
2022/10/19 02:36:02;;;;;;;20.88;10.48;;;;;;;11.26;100.00;96807.31;1029944;28;20049;-74
2022/10/19 02:36:32;;;;;;;17.23;10.48;;;;;;;11.29;100.00;96800.78;1034093;28;20684;-72
2022/10/19 02:37:03;;;;;;;20.60;10.82;;;;;;;11.28;100.00;96793.94;1030050;28;20807;-71
2022/10/19 02:37:34;;;;;;;18.27;10.05;;;;;;;11.31;100.00;96801.34;1028127;28;20054;-70
2022/10/19 02:38:04;;;;;;;17.63;9.98;;;;;;;11.30;100.00;96803.19;1021920;29;20043;-71